createdAt,value
2023-01-21T00:03:09.171Z,90.69
2023-01-21T00:07:20.846Z,90.20
2023-01-21T00:11:32.420Z,90.52
2023-01-21T00:15:44.288Z,90.30
2023-01-21T00:19:55.888Z,90.42
2023-01-21T00:24:07.573Z,90.82
2023-01-21T00:28:19.309Z,90.44
2023-01-21T00:32:30.964Z,90.34
2023-01-21T00:36:42.504Z,90.04
2023-01-21T00:41:04.692Z,90.45
2023-01-21T00:45:16.533Z,90.45
2023-01-21T00:49:28.091Z,90.69
2023-01-21T00:53:42.085Z,90.58
2023-01-21T00:57:55.617Z,90.54
2023-01-21T01:02:08.950Z,90.82
2023-01-21T01:06:23.098Z,90.90
2023-01-21T01:10:37.636Z,90.90
2023-01-21T01:14:49.086Z,90.70
2023-01-21T01:19:00.760Z,90.85
2023-01-21T01:23:12.240Z,90.80
2023-01-21T01:27:23.884Z,90.83
2023-01-21T01:31:35.508Z,91.36
2023-01-21T01:35:48.111Z,91.12
2023-01-21T01:39:59.620Z,91.16
2023-01-21T01:44:48.786Z,91.18
2023-01-21T01:49:08.596Z,91.57
2023-01-21T01:53:20.806Z,92.01
2023-01-21T01:57:36.063Z,91.80
2023-01-21T02:01:47.779Z,91.64
2023-01-21T02:05:59.565Z,91.80
2023-01-21T02:10:13.593Z,91.61
2023-01-21T02:14:25.760Z,91.80
2023-01-21T02:18:58.877Z,91.94
2023-01-21T02:23:19.158Z,92.47
2023-01-21T02:27:48.817Z,92.11
2023-01-21T02:32:34.795Z,92.56
2023-01-21T02:37:01.602Z,92.90
2023-01-21T02:42:02.694Z,92.48
2023-01-21T02:46:20.716Z,93.07
2023-01-21T02:50:40.823Z,92.90
2023-01-21T02:54:54.928Z,93.13
2023-01-21T02:59:06.593Z,92.91
2023-01-21T03:03:35.989Z,92.58
2023-01-21T03:08:17.619Z,92.62
2023-01-21T03:12:42.389Z,92.77
2023-01-21T03:17:01.106Z,93.13
2023-01-21T03:21:18.320Z,92.80
2023-01-21T03:25:33.153Z,93.24
2023-01-21T03:29:47.977Z,93.05
2023-01-21T03:34:04.477Z,93.06
2023-01-21T03:38:30.203Z,93.35
2023-01-21T03:42:43.533Z,92.85
2023-01-21T03:47:31.321Z,92.85
2023-01-21T03:51:50.524Z,93.40
2023-01-21T03:56:02.259Z,93.39
2023-01-21T04:00:14.268Z,93.27
2023-01-21T04:04:25.857Z,93.13
2023-01-21T04:08:37.336Z,93.30
2023-01-21T04:12:48.849Z,93.33
2023-01-21T04:17:00.350Z,93.34
2023-01-21T04:21:11.892Z,93.21
2023-01-21T04:25:23.437Z,93.57
2023-01-21T04:29:35.021Z,93.70
2023-01-21T04:33:46.595Z,93.28
2023-01-21T04:37:58.120Z,93.44
2023-01-21T04:42:09.687Z,93.13
2023-01-21T04:46:21.290Z,93.14
2023-01-21T04:50:32.843Z,93.36
2023-01-21T04:54:44.453Z,93.41
2023-01-21T04:58:56.046Z,93.43
2023-01-21T05:03:07.601Z,93.53
2023-01-21T05:07:21.499Z,93.60
2023-01-21T05:11:33.374Z,94.19
2023-01-21T05:15:44.925Z,93.75
2023-01-21T05:19:56.416Z,94.28
2023-01-21T05:24:08.075Z,94.34
2023-01-21T05:28:19.822Z,94.41
2023-01-21T05:32:31.356Z,94.16
2023-01-21T05:36:42.885Z,94.33
2023-01-21T05:40:58.697Z,94.44
2023-01-21T05:45:11.746Z,94.90
2023-01-21T05:49:23.354Z,94.95
2023-01-21T05:53:35.060Z,94.70
2023-01-21T05:57:46.590Z,94.68
2023-01-21T06:01:58.184Z,95.11
2023-01-21T06:06:09.757Z,95.32
2023-01-21T06:10:21.705Z,95.38
2023-01-21T06:14:34.504Z,95.32
2023-01-21T06:18:46.738Z,95.82
2023-01-21T06:22:58.494Z,95.68
2023-01-21T06:27:10.644Z,95.67
2023-01-21T06:31:22.296Z,96.19
2023-01-21T06:35:34.060Z,96.25
2023-01-21T06:39:45.699Z,96.38
2023-01-21T06:43:57.179Z,95.74
2023-01-21T06:48:09.067Z,95.93
2023-01-21T06:52:20.699Z,95.68
2023-01-21T06:56:32.350Z,95.85
2023-01-21T07:00:44.504Z,95.93
2023-01-21T07:04:58.158Z,96.16
2023-01-21T07:09:11.228Z,95.79
2023-01-21T07:13:23.365Z,96.09
2023-01-21T07:17:34.848Z,95.72
2023-01-21T07:21:46.437Z,95.79
2023-01-21T07:25:58.053Z,95.87
2023-01-21T07:30:17.035Z,95.71
2023-01-21T07:34:28.777Z,95.67
2023-01-21T07:38:40.250Z,95.96
2023-01-21T07:42:53.009Z,95.67
2023-01-21T07:47:04.738Z,95.67
2023-01-21T07:51:16.428Z,95.87
2023-01-21T07:55:29.514Z,95.98
2023-01-21T07:59:41.010Z,95.74
2023-01-21T08:03:52.474Z,95.91
2023-01-21T08:08:04.074Z,95.82
2023-01-21T08:12:15.587Z,96.15
2023-01-21T08:16:27.139Z,96.06
2023-01-21T08:20:38.723Z,95.69
2023-01-21T08:24:50.310Z,96.09
2023-01-21T08:29:01.945Z,95.79
2023-01-21T08:33:14.031Z,95.64
2023-01-21T08:37:25.720Z,95.48
2023-01-21T08:41:37.308Z,95.41
2023-01-21T08:45:49.007Z,95.19
2023-01-21T08:50:00.653Z,95.47
2023-01-21T08:54:12.259Z,95.23
2023-01-21T08:58:23.793Z,95.39
2023-01-21T09:02:35.358Z,95.29
2023-01-21T09:06:47.006Z,95.06
2023-01-21T09:11:02.570Z,95.04
2023-01-21T09:15:14.388Z,94.86
2023-01-21T09:19:26.264Z,95.07
2023-01-21T09:23:39.549Z,95.12
2023-01-21T09:27:51.730Z,94.47
2023-01-21T09:32:05.256Z,94.41
2023-01-21T09:36:22.566Z,94.55
2023-01-21T09:40:35.479Z,94.68
2023-01-21T09:44:51.002Z,94.39
2023-01-21T09:49:05.687Z,94.06
2023-01-21T09:53:52.322Z,94.58
2023-01-21T09:58:13.222Z,94.07
2023-01-21T10:02:44.402Z,94.11
2023-01-21T10:07:15.704Z,93.86
2023-01-21T10:11:46.321Z,93.81
2023-01-21T10:16:13.366Z,93.86
2023-01-21T10:20:30.308Z,93.38
2023-01-21T10:24:49.391Z,92.98
2023-01-21T10:29:01.758Z,92.81
2023-01-21T10:33:20.738Z,92.76
2023-01-21T10:37:44.430Z,92.36
2023-01-21T10:41:58.922Z,91.87
2023-01-21T10:46:13.518Z,92.10
2023-01-21T10:51:07.193Z,91.58
2023-01-21T10:55:31.080Z,91.55
2023-01-21T10:59:43.315Z,91.64
2023-01-21T11:03:58.503Z,91.26
2023-01-21T11:08:20.368Z,91.46
2023-01-21T11:12:32.977Z,90.67
2023-01-21T11:16:50.020Z,89.73
2023-01-21T11:21:21.871Z,88.89
2023-01-21T11:25:41.742Z,88.72
2023-01-21T11:29:56.232Z,88.36
2023-01-21T11:34:15.379Z,88.65
2023-01-21T11:38:29.837Z,87.82
2023-01-21T11:42:53.698Z,88.17
2023-01-21T11:47:29.530Z,85.96
2023-01-21T11:51:42.836Z,85.53
2023-01-21T11:55:57.201Z,84.98
2023-01-21T12:00:19.279Z,83.76
2023-01-21T12:04:32.839Z,82.61
2023-01-21T12:08:50.485Z,79.47
2023-01-21T12:13:08.118Z,77.89
2023-01-21T12:17:40.083Z,77.90
2023-01-21T12:22:25.369Z,77.33
2023-01-21T12:26:41.939Z,77.10
2023-01-21T12:31:05.850Z,77.88
2023-01-21T12:35:32.009Z,76.46
2023-01-21T12:39:46.070Z,76.79
2023-01-21T12:44:16.009Z,76.29
2023-01-21T12:48:35.398Z,76.45
2023-01-21T12:53:05.453Z,76.13
2023-01-21T12:57:54.055Z,76.36
2023-01-21T13:02:18.710Z,76.12
2023-01-21T13:06:53.635Z,76.88
2023-01-21T13:11:19.761Z,76.36
2023-01-21T13:15:34.921Z,76.33
2023-01-21T13:19:46.551Z,76.44
2023-01-21T13:24:01.153Z,76.39
2023-01-21T13:28:34.144Z,76.47
2023-01-21T13:33:04.214Z,76.53
2023-01-21T13:37:51.195Z,76.58
2023-01-21T13:42:16.481Z,77.03
2023-01-21T13:47:00.338Z,77.24
2023-01-21T13:51:24.772Z,76.85
2023-01-21T13:55:54.738Z,76.79
2023-01-21T14:00:12.874Z,76.68
2023-01-21T14:04:30.788Z,76.59
2023-01-21T14:08:50.123Z,77.19
2023-01-21T14:13:28.095Z,77.33
2023-01-21T14:17:46.717Z,77.58
2023-01-21T14:22:13.511Z,77.16
2023-01-21T14:26:45.595Z,77.93
2023-01-21T14:31:09.419Z,77.65
2023-01-21T14:35:40.935Z,77.79
2023-01-21T14:39:58.660Z,77.90
2023-01-21T14:44:35.965Z,77.88
2023-01-21T14:48:56.573Z,77.50
2023-01-21T14:53:32.486Z,77.93
2023-01-21T14:57:44.354Z,77.58
2023-01-21T15:02:19.564Z,77.77
2023-01-21T15:06:36.187Z,78.01
2023-01-21T15:11:06.238Z,77.91
2023-01-21T15:15:36.669Z,77.69
2023-01-21T15:19:57.351Z,78.13
2023-01-21T15:24:30.381Z,77.80
2023-01-21T15:29:22.535Z,78.47
2023-01-21T15:33:59.162Z,78.55
2023-01-21T15:38:15.380Z,79.12
2023-01-21T15:42:55.242Z,78.88
2023-01-21T15:47:28.410Z,79.13
2023-01-21T15:52:12.407Z,78.93
2023-01-21T15:56:55.009Z,79.80
2023-01-21T16:01:34.995Z,79.83
2023-01-21T16:05:52.674Z,79.68
2023-01-21T16:10:07.321Z,80.59
2023-01-21T16:14:35.455Z,81.18
2023-01-21T16:18:59.840Z,81.48
2023-01-21T16:23:15.783Z,81.48
2023-01-21T16:27:31.042Z,81.61
2023-01-21T16:31:50.160Z,81.31
2023-01-21T16:36:07.262Z,81.71
2023-01-21T16:40:29.500Z,82.21
2023-01-21T16:44:41.088Z,82.39
2023-01-21T16:48:57.446Z,81.83
2023-01-21T16:53:09.022Z,82.37
2023-01-21T16:57:29.744Z,83.01
2023-01-21T17:01:41.661Z,82.81
2023-01-21T17:05:55.654Z,83.18
2023-01-21T17:10:19.421Z,82.76
2023-01-21T17:14:32.593Z,82.97
2023-01-21T17:18:52.320Z,83.50
2023-01-21T17:23:08.283Z,83.64
2023-01-21T17:27:21.643Z,83.90
2023-01-21T17:31:42.548Z,84.37
2023-01-21T17:36:11.406Z,84.78
2023-01-21T17:40:24.298Z,85.35
2023-01-21T17:44:36.293Z,85.82
2023-01-21T17:48:50.253Z,86.44
2023-01-21T17:53:09.983Z,86.72
2023-01-21T17:57:35.450Z,86.96
2023-01-21T18:01:47.031Z,86.79
2023-01-21T18:05:58.786Z,87.20
2023-01-21T18:10:19.908Z,87.15
2023-01-21T18:14:33.013Z,87.27
2023-01-21T18:18:44.919Z,87.06
2023-01-21T18:22:58.570Z,87.69
2023-01-21T18:27:11.833Z,88.18
2023-01-21T18:31:23.872Z,87.94
2023-01-21T18:35:36.860Z,88.54
2023-01-21T18:39:48.440Z,88.56
2023-01-21T18:44:01.077Z,88.42
2023-01-21T18:48:17.111Z,88.79
2023-01-21T18:52:29.066Z,89.72
2023-01-21T18:56:42.360Z,89.38
2023-01-21T19:00:54.075Z,89.31
2023-01-21T19:05:06.033Z,89.74
2023-01-21T19:09:20.104Z,89.97
2023-01-21T19:13:31.660Z,89.87
2023-01-21T19:17:43.576Z,89.87
2023-01-21T19:21:56.048Z,90.03
2023-01-21T19:26:09.440Z,90.35
2023-01-21T19:30:23.728Z,90.83
2023-01-21T19:34:35.514Z,90.73
2023-01-21T19:38:53.203Z,90.75
2023-01-21T19:43:04.953Z,90.17
2023-01-21T19:47:27.623Z,90.50
2023-01-21T19:51:39.334Z,90.49
2023-01-21T19:55:51.092Z,90.79
2023-01-21T20:00:03.305Z,91.02
2023-01-21T20:04:16.062Z,91.36
2023-01-21T20:08:29.393Z,91.39
2023-01-21T20:12:43.798Z,90.72
2023-01-21T20:16:56.393Z,91.01
2023-01-21T20:21:07.978Z,90.98
2023-01-21T20:25:22.362Z,91.39
2023-01-21T20:29:33.817Z,91.16
2023-01-21T20:33:46.007Z,91.14
2023-01-21T20:37:58.881Z,91.03
2023-01-21T20:42:12.017Z,91.43
2023-01-21T20:46:27.378Z,91.36
2023-01-21T20:50:38.832Z,90.97
2023-01-21T20:54:50.466Z,91.05
2023-01-21T20:59:02.008Z,91.21
2023-01-21T21:03:16.560Z,91.48
2023-01-21T21:07:28.125Z,91.67
2023-01-21T21:11:39.617Z,91.76
2023-01-21T21:15:52.084Z,91.53
2023-01-21T21:20:03.957Z,91.41
2023-01-21T21:24:15.815Z,91.23
2023-01-21T21:28:27.423Z,91.87
2023-01-21T21:32:38.960Z,91.36
2023-01-21T21:36:50.599Z,91.72
2023-01-21T21:41:22.140Z,91.83
2023-01-21T21:45:35.011Z,91.57
2023-01-21T21:49:46.534Z,91.53
2023-01-21T21:53:58.110Z,91.49
2023-01-21T21:58:09.767Z,91.59
2023-01-21T22:02:21.434Z,91.89
2023-01-21T22:06:33.520Z,91.26
2023-01-21T22:10:45.671Z,91.38
2023-01-21T22:14:57.217Z,91.55
2023-01-21T22:19:08.682Z,91.39
2023-01-21T22:23:20.238Z,91.15
2023-01-21T22:27:31.701Z,91.35
2023-01-21T22:31:43.541Z,91.43
2023-01-21T22:35:55.089Z,91.39
2023-01-21T22:40:07.507Z,91.54
2023-01-21T22:44:19.017Z,91.61
2023-01-21T22:48:31.877Z,91.50
2023-01-21T22:52:43.669Z,91.37
2023-01-21T22:56:55.110Z,91.44
2023-01-21T23:01:07.556Z,91.59
2023-01-21T23:05:20.039Z,91.71
2023-01-21T23:09:31.912Z,92.04
2023-01-21T23:13:43.780Z,92.11
2023-01-21T23:17:55.216Z,92.19
2023-01-21T23:22:08.480Z,92.33
2023-01-21T23:26:20.688Z,92.52
2023-01-21T23:30:33.329Z,92.36
2023-01-21T23:34:44.902Z,92.20
2023-01-21T23:38:56.415Z,92.43
2023-01-21T23:43:07.933Z,92.29
2023-01-21T23:47:19.503Z,92.52
2023-01-21T23:51:31.291Z,92.17
2023-01-21T23:55:42.853Z,92.17
2023-01-21T23:59:54.443Z,92.22
